Terminal Aerodrome Forecast
Issued by NWS

Home | Current Version | Previous Version | Text Only | Print | Product List | Glossary Off
Versions: 1 2 3 4 5 6 7 8 9 10 11 12 13 14 15 16 17 18 19 20 21 22 23 24

930
FTUS43 KBIS 202325
TAFDIK
TAF
KDIK 202325Z 2100/2124 15017G26KT P6SM FEW180
     FM210200 16011KT P6SM FEW050 FEW300
     FM210600 16011KT P6SM FEW300
     FM211000 17009KT P6SM FEW020
     FM211700 17019G28KT P6SM SCT060=

USA.gov is the U.S. government's official web portal to all federal, state and local government web resources and services.